Time;durP1;ratioP1;P1;durP2;ratioP2;P2;SDS_P1;SDS_P2;PMS_P1;PMS_P2;Temp;Humidity;BMP_temperature;BMP_pressure;BME280_temperature;BME280_humidity;BME280_pressure;Samples;Min_cycle;Max_cycle;Signal;HPM_P1;HPM_P2
2022/07/05 00:00:46;;;;;;;5.57;2.92;;;16.30;99.90;;;;;;5071814;28;20040;-61
2022/07/05 00:03:12;;;;;;;12.85;3.45;;;16.30;99.90;;;;;;5066439;28;20036;-61
2022/07/05 00:05:38;;;;;;;5.38;3.10;;;16.40;99.90;;;;;;5051966;28;20032;-61
2022/07/05 00:08:05;;;;;;;4.70;2.47;;;16.50;99.90;;;;;;5051550;28;20107;-61
2022/07/05 00:10:34;;;;;;;6.15;2.80;;;16.50;99.90;;;;;;5051693;28;20028;-61
2022/07/05 00:13:00;;;;;;;3.42;2.47;;;16.60;99.90;;;;;;5051728;28;20033;-62
2022/07/05 00:15:26;;;;;;;3.80;2.45;;;16.70;99.90;;;;;;5051355;28;20140;-62
2022/07/05 00:17:52;;;;;;;5.38;2.80;;;16.80;99.90;;;;;;5055533;28;20028;-62
2022/07/05 00:20:17;;;;;;;7.50;3.17;;;16.80;99.90;;;;;;5071543;28;20026;-62
2022/07/05 00:22:43;;;;;;;5.45;2.80;;;16.70;99.90;;;;;;5071847;28;20086;-61
2022/07/05 00:25:09;;;;;;;6.30;3.03;;;16.70;99.90;;;;;;5071752;28;20050;-61
2022/07/05 00:27:35;;;;;;;5.75;3.45;;;16.60;99.90;;;;;;5071552;28;20103;-61
2022/07/05 00:30:00;;;;;;;5.18;3.58;;;16.50;99.90;;;;;;5071639;28;20025;-61
2022/07/05 00:32:26;;;;;;;5.53;2.97;;;16.60;99.90;;;;;;5061387;28;20434;-62
2022/07/05 00:34:51;;;;;;;4.85;2.65;;;16.70;99.90;;;;;;5051912;28;20028;-62
2022/07/05 00:37:17;;;;;;;3.88;2.90;;;16.70;99.90;;;;;;5051150;28;20017;-62
2022/07/05 00:39:43;;;;;;;5.82;3.30;;;16.70;99.90;;;;;;5051574;28;20029;-62
2022/07/05 00:42:09;;;;;;;7.22;3.35;;;16.80;99.90;;;;;;5051049;28;20111;-62
2022/07/05 00:44:39;;;;;;;7.90;3.72;;;16.80;99.90;;;;;;5051463;28;20410;-62
2022/07/05 00:47:06;;;;;;;5.13;3.20;;;16.80;99.90;;;;;;5059966;28;20021;-62
2022/07/05 00:49:33;;;;;;;11.52;3.75;;;16.80;99.90;;;;;;5070917;28;20130;-61
2022/07/05 00:51:59;;;;;;;11.82;3.58;;;16.80;99.90;;;;;;5071406;28;20046;-62
2022/07/05 00:54:26;;;;;;;10.02;3.53;;;16.90;99.90;;;;;;5068685;28;20029;-61
2022/07/05 00:56:52;;;;;;;4.93;2.58;;;16.80;99.90;;;;;;5070500;28;20027;-61
2022/07/05 00:59:18;;;;;;;3.75;2.83;;;16.80;99.90;;;;;;5070855;28;20032;-62
2022/07/05 01:01:44;;;;;;;11.00;3.30;;;16.60;99.90;;;;;;5052599;28;20031;-62
2022/07/05 01:04:11;;;;;;;4.57;3.17;;;16.40;99.90;;;;;;5070696;28;20028;-61
2022/07/05 01:06:37;;;;;;;7.68;3.08;;;16.20;99.90;;;;;;5070819;28;20021;-59
2022/07/05 01:09:03;;;;;;;5.50;3.30;;;16.10;99.90;;;;;;5059474;28;20033;-61
2022/07/05 01:11:29;;;;;;;7.40;3.30;;;16.10;99.90;;;;;;5050924;28;20234;-60
2022/07/05 01:13:55;;;;;;;7.30;3.40;;;16.10;99.90;;;;;;5049925;28;20028;-61
2022/07/05 01:16:21;;;;;;;9.68;3.08;;;16.10;99.90;;;;;;5050616;28;20013;-61
2022/07/05 01:18:47;;;;;;;6.88;3.40;;;16.20;99.90;;;;;;5050350;28;20063;-62
2022/07/05 01:21:15;;;;;;;5.00;2.72;;;16.20;99.90;;;;;;5050588;28;20056;-61
2022/07/05 01:23:40;;;;;;;7.85;3.25;;;16.20;99.90;;;;;;5050775;28;20040;-61
2022/07/05 01:26:07;;;;;;;6.00;3.22;;;16.10;99.90;;;;;;5051813;28;20478;-62
2022/07/05 01:28:32;;;;;;;8.65;3.20;;;16.00;99.90;;;;;;5049418;28;20021;-61
2022/07/05 01:31:01;;;;;;;5.53;3.28;;;15.90;99.90;;;;;;5050573;28;20025;-61
2022/07/05 01:33:28;;;;;;;6.45;3.17;;;15.70;99.90;;;;;;5054582;28;20063;-61
2022/07/05 01:35:54;;;;;;;7.88;3.67;;;15.50;99.90;;;;;;5070470;28;20025;-62
2022/07/05 01:38:20;;;;;;;12.52;3.70;;;15.40;99.90;;;;;;5070479;28;20020;-61
2022/07/05 01:40:45;;;;;;;4.85;3.55;;;15.30;99.90;;;;;;5068820;28;20032;-61
2022/07/05 01:43:12;;;;;;;5.43;3.38;;;15.30;99.90;;;;;;5069846;28;20027;-60
2022/07/05 01:45:41;;;;;;;5.00;3.85;;;15.20;99.90;;;;;;5070450;28;20486;-60
2022/07/05 01:48:09;;;;;;;3.88;3.38;;;15.30;99.90;;;;;;5069987;28;20028;-61
2022/07/05 01:50:41;;;;;;;5.20;3.25;;;15.40;99.90;;;;;;5069576;28;20823;-61
2022/07/05 01:53:14;;;;;;;5.03;3.40;;;15.50;99.90;;;;;;5069903;28;20040;-61
2022/07/05 01:55:39;;;;;;;4.43;3.53;;;15.60;99.90;;;;;;5065725;28;20463;-59
2022/07/05 01:58:07;;;;;;;7.80;3.50;;;15.70;99.90;;;;;;5050289;28;20025;-58
2022/07/05 02:00:41;;;;;;;3.42;3.13;;;15.80;99.90;;;;;;5050911;28;20505;-61
2022/07/05 02:03:07;;;;;;;16.20;3.28;;;15.80;99.90;;;;;;5049999;28;20064;-61
2022/07/05 02:05:33;;;;;;;7.63;3.70;;;15.80;99.90;;;;;;5049952;28;20053;-61
2022/07/05 02:07:58;;;;;;;5.45;3.10;;;15.90;99.90;;;;;;5050073;28;20025;-61
2022/07/05 02:10:24;;;;;;;6.20;3.55;;;15.80;99.90;;;;;;5065551;28;20052;-61
2022/07/05 02:12:49;;;;;;;8.00;3.13;;;15.70;99.90;;;;;;5069774;28;20028;-61
2022/07/05 02:15:15;;;;;;;6.13;3.60;;;15.60;99.90;;;;;;5070087;28;20016;-61
2022/07/05 02:17:40;;;;;;;3.92;3.10;;;15.60;99.90;;;;;;5070146;28;20020;-61
2022/07/05 02:20:06;;;;;;;6.07;3.67;;;15.60;99.90;;;;;;5069751;28;20542;-61
2022/07/05 02:22:33;;;;;;;7.47;3.60;;;15.50;99.90;;;;;;5067646;28;20054;-62
2022/07/05 02:24:58;;;;;;;7.38;3.33;;;15.40;99.90;;;;;;5050041;28;20024;-61
2022/07/05 02:27:24;;;;;;;7.43;3.95;;;15.40;99.90;;;;;;5050193;28;20371;-60
2022/07/05 02:29:50;;;;;;;6.68;3.53;;;15.40;99.90;;;;;;5049793;28;20021;-61
2022/07/05 02:32:15;;;;;;;5.32;3.22;;;15.40;99.90;;;;;;5049676;28;20467;-61
2022/07/05 02:34:40;;;;;;;8.45;4.75;;;15.50;99.90;;;;;;5050080;28;20061;-60
2022/07/05 02:37:06;;;;;;;6.07;3.40;;;15.60;99.90;;;;;;5049941;28;20419;-61
2022/07/05 02:39:32;;;;;;;5.47;3.35;;;15.60;99.90;;;;;;5069330;28;20032;-62
2022/07/05 02:41:57;;;;;;;8.90;3.33;;;15.70;99.90;;;;;;5069958;28;20426;-59
2022/07/05 02:44:23;;;;;;;9.23;3.90;;;15.70;99.90;;;;;;5069617;28;20025;-61
2022/07/05 02:46:48;;;;;;;7.50;3.25;;;15.60;99.90;;;;;;5069432;28;20032;-60
2022/07/05 02:49:14;;;;;;;8.35;3.58;;;15.60;99.90;;;;;;5069507;28;20030;-61
2022/07/05 02:51:40;;;;;;;6.43;3.35;;;15.50;99.90;;;;;;5063007;28;20496;-61
2022/07/05 02:54:06;;;;;;;3.38;2.95;;;15.40;99.90;;;;;;5050619;28;20071;-61
2022/07/05 02:56:31;;;;;;;6.10;3.15;;;15.20;99.90;;;;;;5049697;28;20071;-61
2022/07/05 02:58:56;;;;;;;6.20;3.60;;;15.00;99.90;;;;;;5049772;28;20017;-61
2022/07/05 03:01:22;;;;;;;8.00;3.65;;;14.80;99.90;;;;;;5049471;28;20079;-62
2022/07/05 03:03:48;;;;;;;6.32;3.58;;;14.70;99.90;;;;;;5049294;28;20309;-61
2022/07/05 03:06:13;;;;;;;11.25;4.10;;;14.70;99.90;;;;;;5049892;28;20033;-61
2022/07/05 03:08:40;;;;;;;8.40;3.88;;;14.70;99.90;;;;;;5056862;28;20024;-61
2022/07/05 03:11:06;;;;;;;7.50;3.65;;;14.60;99.90;;;;;;5069289;28;20013;-61
2022/07/05 03:13:31;;;;;;;5.32;4.18;;;14.60;99.90;;;;;;5068363;28;20655;-62
2022/07/05 03:15:57;;;;;;;8.63;4.20;;;14.50;99.90;;;;;;5049379;28;20025;-61
2022/07/05 03:18:22;;;;;;;17.60;4.75;;;14.50;99.90;;;;;;5050262;28;20100;-61
2022/07/05 03:20:48;;;;;;;10.65;4.10;;;14.50;99.90;;;;;;5053174;28;20041;-59
2022/07/05 03:23:13;;;;;;;4.50;3.65;;;14.60;99.90;;;;;;5052746;28;20020;-61
2022/07/05 03:25:39;;;;;;;7.47;3.70;;;14.70;99.90;;;;;;5054247;28;20052;-61
2022/07/05 03:28:05;;;;;;;8.18;4.50;;;14.80;99.90;;;;;;5053001;28;20032;-60
2022/07/05 03:30:30;;;;;;;7.40;3.97;;;14.90;99.90;;;;;;5052939;28;20028;-61
2022/07/05 03:32:56;;;;;;;7.38;4.18;;;14.90;99.90;;;;;;5069239;28;20046;-61
2022/07/05 03:35:21;;;;;;;8.82;3.88;;;14.90;99.90;;;;;;5073322;28;20129;-61
2022/07/05 03:37:47;;;;;;;6.22;3.80;;;14.90;99.90;;;;;;5072833;28;20069;-61
2022/07/05 03:40:12;;;;;;;6.60;3.50;;;14.90;99.90;;;;;;5072257;28;20086;-61
2022/07/05 03:42:38;;;;;;;7.57;3.22;;;14.90;99.90;;;;;;5071882;28;20152;-61
2022/07/05 03:45:04;;;;;;;6.55;3.40;;;15.00;99.90;;;;;;5072914;28;20033;-61
2022/07/05 03:47:30;;;;;;;8.27;3.78;;;15.10;99.90;;;;;;5073125;28;20020;-61
2022/07/05 03:49:55;;;;;;;8.40;3.58;;;15.10;99.90;;;;;;5072104;28;20042;-61
2022/07/05 03:52:21;;;;;;;7.90;3.55;;;15.20;99.90;;;;;;5072571;28;20016;-60
2022/07/05 03:54:46;;;;;;;6.20;3.30;;;15.30;99.90;;;;;;5054192;28;20021;-60
2022/07/05 03:57:13;;;;;;;7.72;3.38;;;15.40;99.90;;;;;;5053195;28;20024;-60
2022/07/05 03:59:39;;;;;;;6.80;3.88;;;15.40;99.90;;;;;;5088482;22;20476;-56
2022/07/05 04:02:05;;;;;;;9.23;4.15;;;15.50;99.90;;;;;;5071147;28;20035;-59
2022/07/05 04:04:30;;;;;;;6.88;4.10;;;15.50;99.90;;;;;;5072123;28;20386;-59
2022/07/05 04:06:56;;;;;;;9.10;4.28;;;15.60;99.90;;;;;;5072159;28;20451;-58
2022/07/05 04:09:21;;;;;;;7.65;3.53;;;15.60;99.90;;;;;;5055048;28;20094;-57
2022/07/05 04:11:47;;;;;;;5.13;3.38;;;15.70;99.90;;;;;;5051866;28;20459;-58
2022/07/05 04:14:12;;;;;;;7.88;3.85;;;15.80;99.90;;;;;;5051971;28;20033;-58
2022/07/05 04:16:38;;;;;;;9.82;4.28;;;15.80;99.90;;;;;;5052027;28;20471;-58
2022/07/05 04:19:04;;;;;;;8.57;4.78;;;15.80;99.90;;;;;;5051344;28;20079;-59
2022/07/05 04:21:30;;;;;;;9.27;4.00;;;15.80;99.90;;;;;;5053450;28;20048;-59
2022/07/05 04:23:55;;;;;;;4.53;3.35;;;15.90;99.90;;;;;;5071914;28;20099;-59
2022/07/05 04:26:21;;;;;;;6.28;3.53;;;15.90;99.90;;;;;;5071797;28;20422;-59
2022/07/05 04:28:46;;;;;;;5.68;4.45;;;15.90;99.90;;;;;;5070112;28;20017;-60
2022/07/05 04:31:12;;;;;;;7.65;3.90;;;15.90;99.90;;;;;;5053289;28;20491;-60
2022/07/05 04:33:37;;;;;;;12.27;4.78;;;15.90;99.90;;;;;;5051517;28;20017;-59
2022/07/05 04:36:03;;;;;;;7.43;4.18;;;16.00;99.90;;;;;;5050205;28;20033;-60
2022/07/05 04:38:29;;;;;;;9.77;3.78;;;16.00;99.90;;;;;;5052005;28;20017;-57
2022/07/05 04:40:55;;;;;;;4.65;3.25;;;16.10;99.90;;;;;;5051425;28;20064;-60
2022/07/05 04:43:20;;;;;;;7.55;3.97;;;16.10;99.90;;;;;;5051226;28;20385;-59
2022/07/05 04:45:46;;;;;;;6.57;4.03;;;16.10;99.90;;;;;;5050750;28;20040;-57
2022/07/05 04:48:11;;;;;;;9.18;3.78;;;16.20;99.90;;;;;;5051385;28;20029;-60
2022/07/05 04:50:37;;;;;;;8.57;4.82;;;16.20;99.90;;;;;;5050635;28;20078;-60
2022/07/05 04:53:03;;;;;;;9.15;4.03;;;16.20;99.90;;;;;;5060511;28;20075;-60
2022/07/05 04:55:28;;;;;;;18.60;4.30;;;16.30;99.90;;;;;;5069449;28;20112;-60
2022/07/05 04:57:54;;;;;;;5.32;3.00;;;16.20;99.90;;;;;;5071093;28;20156;-60
2022/07/05 05:00:19;;;;;;;12.23;3.97;;;16.20;99.90;;;;;;5070870;28;20096;-60
2022/07/05 05:02:45;;;;;;;6.85;3.55;;;16.30;99.90;;;;;;5070375;28;20330;-57
2022/07/05 05:05:10;;;;;;;10.70;4.25;;;16.30;99.90;;;;;;5070928;28;20538;-58
2022/07/05 05:07:38;;;;;;;6.22;3.38;;;16.30;99.90;;;;;;5070127;28;20045;-59
2022/07/05 05:10:05;;;;;;;6.90;3.28;;;16.30;99.90;;;;;;5051038;28;20028;-59
2022/07/05 05:12:31;;;;;;;5.85;3.60;;;16.30;99.90;;;;;;5050497;28;20086;-60
2022/07/05 05:14:56;;;;;;;4.95;3.22;;;16.30;99.90;;;;;;5049274;28;20021;-59
2022/07/05 05:17:22;;;;;;;7.72;3.22;;;16.40;99.90;;;;;;5050080;28;20096;-60
2022/07/05 05:19:47;;;;;;;7.78;3.63;;;16.40;99.90;;;;;;5050454;28;20091;-57
2022/07/05 05:22:13;;;;;;;8.48;4.18;;;16.50;99.90;;;;;;5053980;28;20029;-59
2022/07/05 05:24:39;;;;;;;6.53;3.63;;;16.50;99.90;;;;;;5058380;28;20028;-60
2022/07/05 05:27:04;;;;;;;14.85;3.75;;;16.50;99.90;;;;;;5070229;28;20029;-60
2022/07/05 05:29:30;;;;;;;9.18;3.30;;;16.50;99.90;;;;;;5070070;28;20428;-60
2022/07/05 05:31:55;;;;;;;6.10;3.42;;;16.60;99.90;;;;;;5068805;28;20486;-60
2022/07/05 05:34:21;;;;;;;6.20;3.50;;;16.60;99.90;;;;;;5069342;28;20009;-59
2022/07/05 05:36:47;;;;;;;6.78;3.20;;;16.70;99.90;;;;;;5054969;28;20087;-60
2022/07/05 05:39:13;;;;;;;9.73;3.53;;;16.80;99.90;;;;;;5049994;28;20033;-60
2022/07/05 05:41:38;;;;;;;7.25;3.00;;;16.80;99.90;;;;;;5051707;28;20025;-60
2022/07/05 05:44:04;;;;;;;5.13;2.80;;;16.90;99.90;;;;;;5049892;28;20096;-60
2022/07/05 05:46:30;;;;;;;4.97;2.83;;;16.90;99.90;;;;;;5049350;28;20467;-60
2022/07/05 05:48:55;;;;;;;6.20;2.63;;;17.00;99.90;;;;;;5049804;28;20044;-60
2022/07/05 05:51:21;;;;;;;8.15;2.53;;;17.00;99.90;;;;;;5062722;28;20035;-59
2022/07/05 05:53:46;;;;;;;8.98;2.90;;;17.00;99.90;;;;;;5069741;28;20074;-59
2022/07/05 05:56:13;;;;;;;7.50;3.13;;;17.10;99.90;;;;;;5061694;28;20033;-59
2022/07/05 05:58:38;;;;;;;4.35;2.25;;;17.10;99.90;;;;;;5049601;28;20068;-59
2022/07/05 06:01:04;;;;;;;10.60;2.95;;;17.10;99.90;;;;;;5049985;28;20060;-59
2022/07/05 06:03:29;;;;;;;7.18;2.88;;;17.20;99.90;;;;;;5051013;28;20069;-59
2022/07/05 06:05:55;;;;;;;6.88;2.40;;;17.30;99.90;;;;;;5069144;28;20846;-57
2022/07/05 06:08:21;;;;;;;8.45;3.10;;;17.30;99.90;;;;;;5069748;28;20020;-58
2022/07/05 06:10:47;;;;;;;3.90;2.70;;;17.40;99.90;;;;;;5069471;28;20126;-59
2022/07/05 06:13:14;;;;;;;4.47;2.70;;;17.40;99.90;;;;;;5069191;28;20024;-59
2022/07/05 06:15:40;;;;;;;4.60;2.55;;;17.50;99.90;;;;;;5064191;28;20017;-59
2022/07/05 06:18:08;;;;;;;6.22;2.50;;;17.50;99.90;;;;;;5048829;28;20538;-58
2022/07/05 06:20:35;;;;;;;4.35;2.80;;;17.60;99.90;;;;;;5049339;28;20033;-60
2022/07/05 06:23:02;;;;;;;14.80;3.60;;;17.60;99.90;;;;;;5049309;28;20111;-59
2022/07/05 06:25:28;;;;;;;7.20;2.97;;;17.70;99.90;;;;;;5049596;28;20063;-60
2022/07/05 06:28:00;;;;;;;14.52;3.13;;;17.80;99.90;;;;;;5049730;28;20025;-61
2022/07/05 06:30:27;;;;;;;7.00;2.97;;;17.90;99.90;;;;;;5061566;28;20181;-61
2022/07/05 06:32:53;;;;;;;4.72;2.67;;;17.90;99.90;;;;;;5068600;28;20035;-60
2022/07/05 06:35:20;;;;;;;3.08;2.17;;;17.90;99.90;;;;;;5064734;28;20371;-60
2022/07/05 06:37:51;;;;;;;8.32;2.90;;;17.90;99.90;;;;;;5049668;28;20028;-59
2022/07/05 06:40:19;;;;;;;10.77;2.97;;;17.90;99.90;;;;;;5049486;28;20052;-60
2022/07/05 06:42:45;;;;;;;7.88;3.25;;;18.00;99.90;;;;;;5048935;28;20107;-59
2022/07/05 06:45:10;;;;;;;3.75;2.50;;;18.10;99.90;;;;;;5068176;28;20107;-60
2022/07/05 06:47:36;;;;;;;9.02;2.55;;;18.10;99.90;;;;;;5069359;28;20036;-60
2022/07/05 06:50:03;;;;;;;5.85;3.47;;;18.20;99.90;;;;;;5069403;28;20089;-59
2022/07/05 06:52:31;;;;;;;5.82;3.05;;;18.30;99.90;;;;;;5069210;28;20020;-59
2022/07/05 06:54:57;;;;;;;2.95;2.15;;;18.30;99.90;;;;;;5071349;28;20028;-59
2022/07/05 06:57:23;;;;;;;4.45;2.60;;;18.40;99.90;;;;;;5073002;28;20025;-59
2022/07/05 06:59:49;;;;;;;6.43;2.70;;;18.40;99.90;;;;;;5073624;28;20035;-59
2022/07/05 07:02:15;;;;;;;3.30;2.20;;;18.50;99.90;;;;;;5072830;28;20676;-58
2022/07/05 07:04:40;;;;;;;9.02;2.30;;;18.50;99.90;;;;;;5073217;28;20039;-59
2022/07/05 07:09:17;;;;;;;9.70;2.60;;;18.60;99.90;;;;;;5073403;28;20032;-59
2022/07/05 07:10:01;;;;;;;4.07;3.05;;;18.70;99.90;;;;;;5054463;28;20044;-59
2022/07/05 07:12:28;;;;;;;5.00;2.30;;;18.90;99.90;;;;;;5053097;28;20064;-59
2022/07/05 07:14:54;;;;;;;10.32;3.28;;;18.90;99.90;;;;;;5052549;28;20086;-58
2022/07/05 07:17:20;;;;;;;8.68;3.00;;;19.10;99.90;;;;;;5052951;28;20032;-59
2022/07/05 07:19:45;;;;;;;5.25;2.65;;;19.20;99.90;;;;;;5053205;28;20037;-59
2022/07/05 07:22:11;;;;;;;4.28;2.70;;;19.20;99.90;;;;;;5057060;28;20056;-59
2022/07/05 07:24:36;;;;;;;5.78;2.67;;;19.20;99.90;;;;;;5073203;28;20032;-59
2022/07/05 07:27:02;;;;;;;6.05;2.85;;;19.30;99.90;;;;;;5073003;28;20025;-59
2022/07/05 07:29:28;;;;;;;7.68;2.95;;;19.30;99.90;;;;;;5073204;28;20043;-59
2022/07/05 07:31:54;;;;;;;6.93;2.50;;;19.40;99.90;;;;;;5072549;28;20043;-60
2022/07/05 07:34:20;;;;;;;5.05;2.70;;;19.40;99.90;;;;;;5072514;28;20099;-60
2022/07/05 07:36:45;;;;;;;8.70;2.78;;;19.40;99.90;;;;;;5062561;28;20068;-60
2022/07/05 07:39:11;;;;;;;7.88;2.63;;;19.50;99.90;;;;;;5052939;28;20025;-59
2022/07/05 07:41:36;;;;;;;5.05;2.40;;;19.60;99.90;;;;;;5054703;28;20028;-59
2022/07/05 07:44:02;;;;;;;7.13;3.38;;;19.70;99.90;;;;;;5052537;28;20175;-59
2022/07/05 07:46:28;;;;;;;3.60;2.55;;;19.80;99.90;;;;;;5053313;28;20112;-60
2022/07/05 07:48:53;;;;;;;7.20;2.75;;;19.90;99.90;;;;;;5052691;28;20033;-59
2022/07/05 07:51:21;;;;;;;8.20;3.08;;;20.00;99.90;;;;;;5064980;28;20025;-60
2022/07/05 07:53:46;;;;;;;4.35;3.08;;;19.90;99.90;;;;;;5072512;28;20021;-59
2022/07/05 07:56:12;;;;;;;6.00;2.20;;;19.90;99.90;;;;;;5072169;28;20020;-59
2022/07/05 07:58:37;;;;;;;7.90;3.28;;;19.90;99.90;;;;;;5072635;28;20103;-59
2022/07/05 08:01:05;;;;;;;2.35;2.00;;;19.90;99.90;;;;;;5072525;28;20054;-60
2022/07/05 08:03:31;;;;;;;7.53;2.47;;;19.80;99.90;;;;;;5070571;28;20032;-60
2022/07/05 08:05:57;;;;;;;2.60;1.88;;;19.90;99.90;;;;;;5052358;28;20036;-60
2022/07/05 08:08:23;;;;;;;4.63;1.63;;;20.00;99.90;;;;;;5052033;28;20044;-60
2022/07/05 08:10:48;;;;;;;8.00;2.13;;;20.00;99.90;;;;;;5052818;28;20074;-58
2022/07/05 08:13:14;;;;;;;3.15;2.05;;;20.00;99.90;;;;;;5052076;28;20094;-60
2022/07/05 08:15:39;;;;;;;4.47;2.58;;;20.20;99.90;;;;;;5052170;28;20832;-60
2022/07/05 08:23:33;;;;;;;8.07;2.15;;;20.20;99.90;;;;;;5072562;28;20039;-60
2022/07/05 08:25:58;;;;;;;2.80;1.60;;;20.10;99.90;;;;;;5071833;28;20036;-59
2022/07/05 08:28:25;;;;;;;7.78;2.00;;;20.10;99.90;;;;;;5072162;28;20024;-60
2022/07/05 08:30:52;;;;;;;3.85;1.48;;;20.10;99.90;;;;;;5072203;28;20101;-60
2022/07/05 08:33:17;;;;;;;7.93;2.10;;;20.10;99.90;;;;;;5053471;28;20168;-59
2022/07/05 08:35:43;;;;;;;3.63;1.40;;;20.30;99.90;;;;;;5051870;28;20427;-59
2022/07/05 08:38:08;;;;;;;3.42;1.67;;;20.50;99.90;;;;;;5051803;28;20045;-59
2022/07/05 08:40:38;;;;;;;2.70;1.60;;;20.70;99.90;;;;;;5050206;28;20384;-60
2022/07/05 08:43:05;;;;;;;4.57;1.55;;;20.80;99.90;;;;;;5051785;28;20140;-60
2022/07/05 08:45:32;;;;;;;1.17;1.02;;;20.90;99.90;;;;;;5055920;28;20029;-59
2022/07/05 08:47:59;;;;;;;5.05;2.03;;;20.90;99.90;;;;;;5071762;28;20028;-59
2022/07/05 08:50:26;;;;;;;5.03;1.83;;;20.90;99.90;;;;;;5071435;28;20038;-59
2022/07/05 08:52:53;;;;;;;1.42;1.33;;;20.90;99.90;;;;;;5071296;28;20054;-59
2022/07/05 08:55:18;;;;;;;4.13;1.67;;;21.10;99.90;;;;;;5069885;28;20032;-58
2022/07/05 08:57:44;;;;;;;2.78;1.60;;;21.20;99.90;;;;;;5071456;28;20036;-59
2022/07/05 09:00:10;;;;;;;2.15;1.50;;;21.30;99.90;;;;;;5070978;28;20464;-59
2022/07/05 09:02:36;;;;;;;2.95;1.30;;;21.50;99.90;;;;;;5066631;28;20461;-61
2022/07/05 09:05:02;;;;;;;2.47;1.50;;;21.60;99.90;;;;;;5051327;28;20031;-59
2022/07/05 09:07:32;;;;;;;4.25;1.40;;;21.60;99.90;;;;;;5051913;28;20017;-57
2022/07/05 09:09:59;;;;;;;1.48;1.08;;;21.50;99.90;;;;;;5069071;28;20051;-58
2022/07/05 09:12:25;;;;;;;4.88;1.40;;;21.60;99.90;;;;;;5070818;28;20400;-57
2022/07/05 09:14:52;;;;;;;2.13;1.75;;;21.60;99.90;;;;;;5070802;28;20046;-59
2022/07/05 09:17:17;;;;;;;9.02;2.35;;;21.70;99.90;;;;;;5070388;28;20363;-60
2022/07/05 09:19:43;;;;;;;2.45;1.63;;;21.80;99.90;;;;;;5070775;28;20031;-58
2022/07/05 09:22:08;;;;;;;7.55;2.10;;;21.80;99.90;;;;;;5066181;28;20035;-57
2022/07/05 09:24:45;;;;;;;4.38;1.92;;;21.90;99.90;;;;;;5051033;28;20479;-59
2022/07/05 09:27:11;;;;;;;2.33;1.92;;;21.70;99.90;;;;;;5069899;28;20036;-59
2022/07/05 09:29:36;;;;;;;2.20;1.85;;;21.90;99.90;;;;;;5070785;28;20545;-59
2022/07/05 09:32:02;;;;;;;2.55;1.95;;;22.10;99.90;;;;;;5070440;28;20020;-59
2022/07/05 09:34:30;;;;;;;4.85;1.90;;;22.10;99.90;;;;;;5054181;28;20033;-59
2022/07/05 09:37:01;;;;;;;4.18;1.88;;;22.10;99.90;;;;;;5050916;28;20021;-59
2022/07/05 09:39:30;;;;;;;5.85;2.55;;;22.30;99.90;;;;;;5050650;28;20410;-58
2022/07/05 09:42:11;;;;;;;3.78;2.15;;;22.30;99.90;;;;;;5049889;28;20556;-59
2022/07/05 09:44:50;;;;;;;3.92;2.42;;;22.30;99.90;;;;;;5050482;28;20475;-59
2022/07/05 09:47:18;;;;;;;3.40;2.28;;;22.40;99.90;;;;;;5055217;28;20033;-60
2022/07/05 09:49:51;;;;;;;7.90;2.17;;;22.70;99.90;;;;;;5069915;28;20108;-60
2022/07/05 09:52:28;;;;;;;3.33;1.98;;;22.40;99.90;;;;;;5070645;28;20033;-57
2022/07/05 09:55:07;;;;;;;2.55;1.65;;;22.30;99.90;;;;;;5070249;28;20029;-59
2022/07/05 09:57:35;;;;;;;4.53;1.60;;;22.40;99.90;;;;;;5070457;28;20036;-58
2022/07/05 10:00:14;;;;;;;2.15;1.73;;;22.40;99.90;;;;;;5069987;28;20484;-60
2022/07/05 10:02:44;;;;;;;2.22;1.83;;;22.30;99.90;;;;;;5082808;22;20052;-62
2022/07/05 10:05:18;;;;;;;1.98;1.60;;;22.30;99.90;;;;;;5069738;28;20082;-61
2022/07/05 10:07:48;;;;;;;3.50;2.13;;;22.30;99.90;;;;;;5069950;28;20047;-63
2022/07/05 10:10:15;;;;;;;5.32;1.73;;;22.30;99.90;;;;;;5069857;28;21090;-61
2022/07/05 10:12:42;;;;;;;2.83;1.42;;;22.20;99.90;;;;;;5069117;28;20017;-61
2022/07/05 10:15:16;;;;;;;4.32;1.95;;;22.50;99.90;;;;;;5077238;28;20541;-61
2022/07/05 10:17:44;;;;;;;;;;;22.70;99.90;;;;;;5090009;28;20627;-62
2022/07/05 10:20:19;;;;;;;3.97;1.67;;;22.50;99.90;;;;;;5089925;28;20282;-61
2022/07/05 10:22:45;;;;;;;3.08;1.75;;;22.70;99.90;;;;;;5089247;28;20534;-61
2022/07/05 10:25:11;;;;;;;2.25;1.60;;;23.00;99.90;;;;;;5089898;28;20024;-62
2022/07/05 10:27:38;;;;;;;2.45;1.40;;;23.20;99.90;;;;;;5089549;28;20162;-62
2022/07/05 10:30:04;;;;;;;2.58;1.50;;;23.40;99.90;;;;;;5088179;28;20031;-60
2022/07/05 10:32:30;;;;;;;3.55;1.42;;;23.60;99.90;;;;;;5075213;28;20107;-62
2022/07/05 10:34:58;;;;;;;1.73;1.45;;;23.70;99.90;;;;;;5069586;28;20182;-62
2022/07/05 10:37:27;;;;;;;2.70;1.33;;;23.30;99.90;;;;;;5069667;28;20021;-61
2022/07/05 10:39:54;;;;;;;8.50;1.42;;;23.40;99.90;;;;;;5069508;28;20016;-61
2022/07/05 10:42:20;;;;;;;3.13;1.63;;;23.00;99.90;;;;;;5069032;28;20478;-62
2022/07/05 10:44:46;;;;;;;2.10;1.25;;;23.10;99.90;;;;;;5082239;28;20111;-60
2022/07/05 10:47:12;;;;;;;1.27;1.17;;;23.70;99.90;;;;;;5082932;28;20115;-62
2022/07/05 10:49:39;;;;;;;1.15;1.05;;;23.70;99.90;;;;;;5069319;28;20103;-62
2022/07/05 10:52:21;;;;;;;4.43;1.67;;;24.20;99.90;;;;;;5068964;28;20031;-62
2022/07/05 10:55:22;;;;;;;2.00;1.00;;;24.60;99.90;;;;;;5070489;28;20020;-62
2022/07/05 10:58:15;;;;;;;4.40;1.73;;;24.70;99.90;;;;;;5069367;28;20435;-62
2022/07/05 11:00:41;;;;;;;6.03;1.27;;;23.90;99.90;;;;;;5069173;28;20371;-62
2022/07/05 11:03:37;;;;;;;1.17;0.98;;;23.40;99.90;;;;;;5069496;28;20051;-62
2022/07/05 11:06:03;;;;;;;5.35;1.73;;;23.10;99.90;;;;;;5069342;28;20028;-61
2022/07/05 11:08:33;;;;;;;4.35;1.58;;;23.10;99.90;;;;;;5075539;28;20020;-61
2022/07/05 11:11:13;;;;;;;6.10;1.20;;;23.50;99.90;;;;;;5089330;28;20024;-62
2022/07/05 11:13:46;;;;;;;2.70;1.40;;;23.90;99.90;;;;;;5089192;28;20482;-62
2022/07/05 11:16:31;;;;;;;4.85;1.17;;;24.20;99.90;;;;;;5089425;28;20026;-61
2022/07/05 11:19:07;;;;;;;1.73;1.10;;;24.60;99.90;;;;;;5090060;28;20020;-60
2022/07/05 11:21:34;;;;;;;0.85;0.82;;;24.90;99.90;;;;;;5089016;28;20478;-62
2022/07/05 11:24:25;;;;;;;3.03;1.10;;;24.80;99.90;;;;;;5076180;28;20565;-61
2022/07/05 11:26:52;;;;;;;3.72;1.10;;;25.20;99.90;;;;;;5068976;28;20024;-61
2022/07/05 11:29:44;;;;;;;1.75;1.10;;;25.40;99.90;;;;;;5069012;28;20478;-62
2022/07/05 11:32:14;;;;;;;2.13;1.30;;;25.60;99.90;;;;;;5069172;28;20032;-60
2022/07/05 11:34:42;;;;;;;1.63;0.98;;;25.50;99.50;;;;;;5068819;28;20021;-62
2022/07/05 11:37:13;;;;;;;1.55;1.17;;;25.30;99.90;;;;;;5068934;28;20024;-62
2022/07/05 11:39:39;;;;;;;2.08;1.30;;;25.30;99.90;;;;;;5069961;28;20024;-61
2022/07/05 11:42:05;;;;;;;2.95;1.85;;;24.80;99.90;;;;;;5072197;28;20032;-61
2022/07/05 11:44:35;;;;;;;3.38;1.23;;;24.40;99.90;;;;;;5072206;28;20025;-61
2022/07/05 11:47:01;;;;;;;2.45;0.95;;;24.40;99.90;;;;;;5071703;28;20113;-62
2022/07/05 11:49:26;;;;;;;3.05;1.27;;;24.50;99.90;;;;;;5077178;28;20077;-61
2022/07/05 11:51:55;;;;;;;3.90;1.42;;;24.90;99.90;;;;;;5092223;28;20024;-62
2022/07/05 11:54:25;;;;;;;2.70;1.40;;;25.10;99.90;;;;;;5092499;28;20117;-61
2022/07/05 11:56:51;;;;;;;1.33;0.90;;;25.10;99.50;;;;;;5092603;28;20024;-61
2022/07/05 11:59:21;;;;;;;0.77;0.70;;;25.50;98.00;;;;;;5092481;28;20031;-61
2022/07/05 12:01:47;;;;;;;1.38;0.98;;;25.30;98.70;;;;;;5092135;28;20101;-62
2022/07/05 12:04:25;;;;;;;6.28;1.00;;;25.60;97.40;;;;;;5086359;28;20036;-62
2022/07/05 12:06:50;;;;;;;3.45;1.10;;;25.80;99.40;;;;;;5072354;28;20048;-61
2022/07/05 12:09:25;;;;;;;2.53;1.17;;;25.60;99.90;;;;;;5070649;28;20055;-61
2022/07/05 12:14:36;;;;;;;1.88;1.15;;;24.40;99.90;;;;;;5072802;28;20031;-61
2022/07/05 12:17:15;;;;;;;2.38;1.10;;;24.50;99.90;;;;;;5071947;28;20390;-62
2022/07/05 12:19:41;;;;;;;6.43;1.38;;;24.40;99.90;;;;;;5090592;28;20027;-61
2022/07/05 12:22:07;;;;;;;1.75;1.10;;;24.20;99.90;;;;;;5092130;28;20031;-60
2022/07/05 12:24:33;;;;;;;3.63;1.33;;;24.40;99.90;;;;;;5091922;28;20055;-61
2022/07/05 12:26:59;;;;;;;1.80;0.90;;;24.90;99.90;;;;;;5091558;28;20405;-62
2022/07/05 12:29:25;;;;;;;1.85;1.05;;;24.80;98.40;;;;;;5091900;28;20028;-61
2022/07/05 12:32:08;;;;;;;2.10;0.88;;;24.90;99.30;;;;;;5089805;28;20538;-62
2022/07/05 12:34:34;;;;;;;2.25;1.00;;;25.20;97.00;;;;;;5071994;28;20036;-57
2022/07/05 12:36:59;;;;;;;3.13;1.23;;;25.40;98.10;;;;;;5071537;28;20494;-61
2022/07/05 12:39:25;;;;;;;2.17;1.10;;;25.50;97.30;;;;;;5071466;28;20044;-61
2022/07/05 12:41:51;;;;;;;1.63;0.95;;;25.10;97.90;;;;;;5071251;28;20024;-62
2022/07/05 12:44:20;;;;;;;1.48;0.93;;;25.20;98.20;;;;;;5090289;28;20534;-62
2022/07/05 12:46:49;;;;;;;4.35;1.10;;;24.90;98.40;;;;;;5091498;28;20024;-61
2022/07/05 12:49:15;;;;;;;1.08;0.90;;;24.70;98.00;;;;;;5091183;28;20024;-62
2022/07/05 12:51:42;;;;;;;5.15;1.23;;;24.60;98.40;;;;;;5091075;28;20028;-62
2022/07/05 13:00:07;;;;;;;2.00;0.80;;;25.00;97.50;;;;;;5070850;28;20040;-62